Time;durP1;ratioP1;P1;durP2;ratioP2;P2;SDS_P1;SDS_P2;PMS_P1;PMS_P2;Temp;Humidity;BMP_temperature;BMP_pressure;BME280_temperature;BME280_humidity;BME280_pressure;Samples;Min_cycle;Max_cycle;Signal;HPM_P1;HPM_P2
2022/12/06 00:01:21;;;;;;;14.63;10.27;;;2.10;99.90;;;;;;4967291;28;20208;-77
2022/12/06 00:03:51;;;;;;;15.90;10.60;;;1.90;99.90;;;;;;4967031;28;20623;-79
2022/12/06 00:06:19;;;;;;;12.73;9.87;;;2.30;99.90;;;;;;4967005;28;20547;-79
2022/12/06 00:08:46;;;;;;;12.53;9.47;;;2.20;99.90;;;;;;4968867;28;20632;-78
2022/12/06 00:11:20;;;;;;;14.07;10.57;;;1.90;99.90;;;;;;4968944;28;20193;-79
2022/12/06 00:13:46;;;;;;;14.37;10.80;;;1.80;99.90;;;;;;4968750;28;20562;-78
2022/12/06 00:16:15;;;;;;;13.77;10.13;;;2.10;99.90;;;;;;4966268;28;20662;-81
2022/12/06 00:18:42;;;;;;;14.80;10.77;;;2.30;99.90;;;;;;4969186;28;20193;-78
2022/12/06 00:21:13;;;;;;;14.47;10.80;;;2.40;45.80;;;;;;4969760;28;20185;-80
2022/12/06 00:23:41;;;;;;;12.17;9.97;;;1.90;99.70;;;;;;4968782;28;20240;-79
2022/12/06 00:26:07;;;;;;;13.90;9.83;;;2.40;42.70;;;;;;4968239;28;20233;-81
2022/12/06 00:28:34;;;;;;;12.83;10.40;;;2.40;92.30;;;;;;4967299;28;20200;-77
2022/12/06 00:31:02;;;;;;;12.37;9.73;;;3.50;1.00;;;;;;4969156;28;20557;-79
2022/12/06 00:33:28;;;;;;;14.77;11.20;;;3.00;64.70;;;;;;4967979;28;20751;-80
2022/12/06 00:35:59;;;;;;;13.53;10.00;;;3.00;99.90;;;;;;4968141;28;20257;-80
2022/12/06 00:38:27;;;;;;;13.07;10.17;;;1.90;99.90;;;;;;4968827;28;20232;-78
2022/12/06 00:40:59;;;;;;;13.40;10.83;;;2.70;99.90;;;;;;4970545;28;20208;-80
2022/12/06 00:43:25;;;;;;;12.10;9.50;;;1.60;99.90;;;;;;4971662;28;20228;-78
2022/12/06 00:45:51;;;;;;;13.23;10.47;;;2.10;99.90;;;;;;4968211;28;20235;-80
2022/12/06 00:48:16;;;;;;;14.27;10.47;;;1.70;99.90;;;;;;4973021;28;20185;-81
2022/12/06 00:50:42;;;;;;;12.97;10.23;;;2.30;1.00;;;;;;4978415;28;20236;-81
2022/12/06 00:53:08;;;;;;;13.43;10.80;;;2.00;1.00;;;;;;4974795;28;20523;-78
2022/12/06 00:55:33;;;;;;;13.23;10.90;;;2.30;1.00;;;;;;4976187;28;20185;-79
2022/12/06 00:57:59;;;;;;;12.57;10.00;;;1.80;1.00;;;;;;4977310;28;20556;-80
2022/12/06 01:00:24;;;;;;;13.17;10.30;;;2.40;1.00;;;;;;4977040;28;20332;-79
2022/12/06 01:02:50;;;;;;;13.83;10.17;;;2.90;99.90;;;;;;4973401;28;20615;-79
2022/12/06 01:05:16;;;;;;;11.90;10.00;;;2.30;99.90;;;;;;4971852;28;20205;-79
2022/12/06 01:07:42;;;;;;;13.20;10.00;;;1.90;99.90;;;;;;4972713;28;20203;-80
2022/12/06 01:10:07;;;;;;;12.53;9.30;;;1.90;99.90;;;;;;4973996;28;20181;-78
2022/12/06 01:12:33;;;;;;;13.90;10.37;;;1.80;99.90;;;;;;4973078;28;20572;-79
2022/12/06 01:14:58;;;;;;;12.20;9.37;;;1.80;99.90;;;;;;4973603;28;20345;-79
2022/12/06 01:17:24;;;;;;;12.47;9.93;;;1.80;99.90;;;;;;4973430;28;20194;-79
2022/12/06 01:19:50;;;;;;;12.27;10.13;;;1.80;99.90;;;;;;4971894;28;20455;-79
2022/12/06 01:22:15;;;;;;;11.77;9.67;;;1.80;99.90;;;;;;4968769;28;20668;-81
2022/12/06 01:24:41;;;;;;;11.67;9.00;;;1.70;99.90;;;;;;4970007;28;20451;-81
2022/12/06 01:27:06;;;;;;;11.90;9.47;;;3.60;99.90;;;;;;4970082;28;20195;-79
2022/12/06 01:29:32;;;;;;;11.83;8.83;;;1.80;99.90;;;;;;4969232;28;20200;-79
2022/12/06 01:31:58;;;;;;;11.37;9.67;;;2.30;99.90;;;;;;4970182;28;20234;-79
2022/12/06 01:34:23;;;;;;;10.83;9.03;;;1.80;99.90;;;;;;4970218;28;20213;-79
2022/12/06 01:36:49;;;;;;;11.97;9.10;;;3.60;99.90;;;;;;4972521;28;20207;-80
2022/12/06 01:39:15;;;;;;;11.83;8.70;;;1.90;99.90;;;;;;4972330;28;20188;-79
2022/12/06 01:41:41;;;;;;;12.27;9.43;;;1.90;99.90;;;;;;4971212;28;20212;-79
2022/12/06 01:44:27;;;;;;;10.40;8.80;;;1.80;99.90;;;;;;4972304;28;20230;-80
2022/12/06 01:46:53;;;;;;;12.03;9.00;;;1.80;99.90;;;;;;4970490;28;20809;-80
2022/12/06 01:49:24;;;;;;;11.27;9.23;;;1.80;99.90;;;;;;4961249;28;20556;-79
2022/12/06 01:52:06;;;;;;;11.93;9.00;;;1.80;99.90;;;;;;4970584;28;20209;-78
2022/12/06 01:54:32;;;;;;;12.00;8.67;;;1.80;99.90;;;;;;4972262;28;20206;-79
2022/12/06 01:57:00;;;;;;;13.87;10.40;;;1.80;99.90;;;;;;4972014;28;20215;-79
2022/12/06 01:59:27;;;;;;;11.50;9.20;;;1.80;99.90;;;;;;4970371;28;20323;-79
2022/12/06 02:01:53;;;;;;;13.20;9.30;;;1.80;99.90;;;;;;4984632;28;20197;-79
2022/12/06 02:04:19;;;;;;;12.53;9.37;;;1.80;99.90;;;;;;4969419;28;20217;-80
2022/12/06 02:06:46;;;;;;;12.70;9.47;;;1.80;99.90;;;;;;4968380;28;20196;-78
2022/12/06 02:09:14;;;;;;;11.67;9.03;;;1.80;99.90;;;;;;4970741;28;20191;-81
2022/12/06 02:11:40;;;;;;;11.20;9.13;;;1.80;99.90;;;;;;4969595;28;20291;-81
2022/12/06 02:14:13;;;;;;;12.70;9.63;;;1.80;99.90;;;;;;4969472;28;20216;-79
2022/12/06 02:16:57;;;;;;;12.20;9.30;;;1.80;96.80;;;;;;4970020;28;20185;-79
2022/12/06 02:19:41;;;;;;;13.07;9.80;;;1.50;99.90;;;;;;4961748;28;20239;-79
2022/12/06 02:22:23;;;;;;;11.20;9.37;;;1.70;99.90;;;;;;4961678;28;20185;-79
2022/12/06 02:25:14;;;;;;;13.43;9.30;;;1.80;99.90;;;;;;4971139;28;20315;-80
2022/12/06 02:28:09;;;;;;;12.10;9.60;;;1.80;99.90;;;;;;4971312;28;20200;-79
2022/12/06 02:30:45;;;;;;;12.17;9.33;;;1.70;99.90;;;;;;4971278;28;20667;-82
2022/12/06 02:33:24;;;;;;;11.93;9.03;;;1.70;1.00;;;;;;4971026;28;20663;-79
2022/12/06 02:36:01;;;;;;;11.40;9.10;;;1.80;99.90;;;;;;4969597;28;20195;-79
2022/12/06 02:38:42;;;;;;;11.10;8.83;;;1.80;99.90;;;;;;4970845;28;20213;-79
2022/12/06 02:41:18;;;;;;;11.03;8.17;;;1.70;99.90;;;;;;4970569;28;20185;-79
2022/12/06 02:43:53;;;;;;;10.77;9.00;;;1.80;99.90;;;;;;4969616;28;20306;-79
2022/12/06 02:46:21;;;;;;;12.70;9.20;;;1.60;99.90;;;;;;4970058;28;20231;-79
2022/12/06 02:48:50;;;;;;;11.43;8.73;;;3.10;99.90;;;;;;4968496;28;20197;-79
2022/12/06 02:51:17;;;;;;;10.03;8.63;;;1.80;99.90;;;;;;4968400;28;20549;-79
2022/12/06 02:53:50;;;;;;;11.47;8.47;;;1.70;99.90;;;;;;4965980;28;20992;-79
2022/12/06 02:56:17;;;;;;;11.37;8.03;;;1.70;99.90;;;;;;4966754;28;20682;-81
2022/12/06 02:58:42;;;;;;;10.90;8.47;;;1.80;99.90;;;;;;4966768;28;20216;-80
2022/12/06 03:01:13;;;;;;;9.33;7.87;;;1.80;99.90;;;;;;4969811;28;20213;-80
2022/12/06 03:04:08;;;;;;;11.17;8.13;;;1.80;57.20;;;;;;4970266;28;20220;-79
2022/12/06 03:06:39;;;;;;;11.77;9.27;;;1.90;1.00;;;;;;4970805;28;20191;-78
2022/12/06 03:09:12;;;;;;;9.93;8.40;;;1.50;1.00;;;;;;4971242;28;20212;-80
2022/12/06 03:11:50;;;;;;;10.93;8.37;;;1.80;1.00;;;;;;4971523;28;20653;-79
2022/12/06 03:14:24;;;;;;;9.17;8.17;;;1.80;1.00;;;;;;4970996;28;20240;-79
2022/12/06 03:17:17;;;;;;;10.67;8.27;;;1.70;1.00;;;;;;4971049;28;20184;-79
2022/12/06 03:19:51;;;;;;;9.70;8.47;;;1.80;1.00;;;;;;4970776;28;20620;-79
2022/12/06 03:22:28;;;;;;;12.17;8.70;;;1.70;1.00;;;;;;4970246;28;20181;-80
2022/12/06 03:24:54;;;;;;;10.73;8.70;;;1.70;20.70;;;;;;4967766;28;20236;-79
2022/12/06 03:27:21;;;;;;;11.47;8.90;;;1.80;16.60;;;;;;4970211;28;20313;-79
2022/12/06 03:29:54;;;;;;;11.13;8.67;;;1.70;7.50;;;;;;4970423;28;20188;-79
2022/12/06 03:32:24;;;;;;;8.57;7.50;;;1.80;8.70;;;;;;4966946;28;20209;-78
2022/12/06 03:34:53;;;;;;;11.53;9.23;;;1.80;1.00;;;;;;4970597;28;20251;-80
2022/12/06 03:37:22;;;;;;;12.27;9.13;;;1.80;1.00;;;;;;4969468;28;20255;-79
2022/12/06 03:40:06;;;;;;;11.30;8.57;;;1.70;1.00;;;;;;4970968;28;20185;-79
2022/12/06 03:42:32;;;;;;;10.27;8.67;;;1.80;1.00;;;;;;4969768;28;20209;-79
2022/12/06 03:44:59;;;;;;;10.03;8.30;;;1.80;1.00;;;;;;4971021;28;20262;-80
2022/12/06 03:47:37;;;;;;;10.00;8.47;;;1.70;6.50;;;;;;4970094;28;20191;-79
2022/12/06 03:50:12;;;;;;;8.93;7.67;;;1.60;24.90;;;;;;4970767;28;21213;-80
2022/12/06 03:52:38;;;;;;;8.97;7.83;;;2.10;99.90;;;;;;4969061;28;20634;-79
2022/12/06 03:55:04;;;;;;;10.13;8.43;;;1.70;99.90;;;;;;4970156;28;20205;-80
2022/12/06 03:57:30;;;;;;;10.50;8.03;;;1.80;99.90;;;;;;4969887;28;21902;-79
2022/12/06 03:59:55;;;;;;;10.30;8.23;;;1.70;52.40;;;;;;4970395;28;20287;-78
2022/12/06 04:02:21;;;;;;;11.20;8.93;;;1.70;13.50;;;;;;4959224;28;20219;-79
2022/12/06 04:04:48;;;;;;;9.43;8.30;;;1.70;1.00;;;;;;4970620;28;20248;-79
2022/12/06 04:07:13;;;;;;;9.30;7.77;;;1.40;99.90;;;;;;4970546;28;20180;-78
2022/12/06 04:09:51;;;;;;;10.00;8.07;;;1.60;99.90;;;;;;4968816;28;20185;-79
2022/12/06 04:15:01;;;;;;;10.57;8.93;;;3.30;99.90;;;;;;4970534;28;20244;-79
2022/12/06 04:20:10;;;;;;;9.53;8.03;;;1.60;99.90;;;;;;4969893;28;20263;-79
2022/12/06 04:25:20;;;;;;;9.97;8.40;;;1.60;99.90;;;;;;4973486;28;20223;-79
2022/12/06 04:38:43;;;;;;;13.80;8.80;;;1.60;1.00;;;;;;4973475;28;20215;-79
2022/12/06 04:41:10;;;;;;;10.13;8.33;;;1.50;1.00;;;;;;4973499;28;20185;-78
2022/12/06 04:43:41;;;;;;;11.10;8.70;;;3.10;1.00;;;;;;4972661;28;20217;-78
2022/12/06 04:46:11;;;;;;;9.80;7.80;;;1.70;99.90;;;;;;4972761;28;20173;-79
2022/12/06 04:48:38;;;;;;;9.43;8.10;;;1.70;99.90;;;;;;4970822;28;20224;-78
2022/12/06 04:51:04;;;;;;;9.97;8.00;;;1.70;99.90;;;;;;4971619;28;21186;-79
2022/12/06 04:53:30;;;;;;;9.97;8.10;;;1.70;99.90;;;;;;4971121;28;20209;-80
2022/12/06 04:55:56;;;;;;;10.43;7.83;;;1.70;99.90;;;;;;4970811;28;20260;-79
2022/12/06 04:58:22;;;;;;;9.80;8.50;;;2.80;99.90;;;;;;4971434;28;20176;-80
2022/12/06 05:00:50;;;;;;;10.33;7.87;;;1.50;99.90;;;;;;4969726;28;20694;-80
2022/12/06 05:03:16;;;;;;;8.50;7.60;;;3.20;99.90;;;;;;4968760;28;20189;-82
2022/12/06 05:05:41;;;;;;;10.30;8.27;;;1.60;99.90;;;;;;4968565;28;20181;-79
2022/12/06 05:08:08;;;;;;;11.00;8.83;;;1.60;99.90;;;;;;4969438;28;20561;-80
2022/12/06 05:10:34;;;;;;;10.03;8.50;;;1.60;99.90;;;;;;4968863;28;20200;-81
2022/12/06 05:13:00;;;;;;;10.53;8.30;;;2.70;99.90;;;;;;4983331;22;20232;-81
2022/12/06 05:15:27;;;;;;;11.30;7.80;;;1.60;99.90;;;;;;4966576;28;20205;-81
2022/12/06 05:17:53;;;;;;;10.23;7.77;;;1.50;99.90;;;;;;4973038;28;20177;-79
2022/12/06 05:20:19;;;;;;;9.73;8.33;;;1.60;1.00;;;;;;4970604;28;20180;-81
2022/12/06 05:22:45;;;;;;;9.53;7.93;;;1.50;99.90;;;;;;4968541;28;20218;-79
2022/12/06 05:25:11;;;;;;;8.60;7.67;;;3.30;99.90;;;;;;4966746;28;20259;-81
2022/12/06 05:27:37;;;;;;;8.97;8.03;;;1.40;99.90;;;;;;4965413;28;20192;-78
2022/12/06 05:30:04;;;;;;;8.93;7.67;;;1.30;99.90;;;;;;4965849;28;20185;-80
2022/12/06 05:32:29;;;;;;;8.30;7.30;;;1.60;99.90;;;;;;4964477;28;20209;-80
2022/12/06 05:34:55;;;;;;;8.53;7.23;;;1.50;99.90;;;;;;4964026;28;20201;-82
2022/12/06 05:37:21;;;;;;;9.13;7.40;;;1.50;99.90;;;;;;4965255;28;20209;-81
2022/12/06 05:39:47;;;;;;;8.73;7.50;;;1.50;99.90;;;;;;4966019;28;20280;-82
2022/12/06 05:42:12;;;;;;;7.77;6.97;;;1.50;99.90;;;;;;4965365;28;20272;-81
2022/12/06 05:44:38;;;;;;;9.70;8.13;;;1.30;1.00;;;;;;4966859;28;20213;-81
2022/12/06 05:47:04;;;;;;;8.50;7.43;;;3.50;1.00;;;;;;4965691;28;20203;-81
2022/12/06 05:49:29;;;;;;;8.40;7.50;;;0.30;99.90;;;;;;4965913;28;20215;-81
2022/12/06 05:51:55;;;;;;;8.50;7.60;;;1.50;99.90;;;;;;4965086;28;20251;-81
2022/12/06 05:54:20;;;;;;;9.23;8.03;;;4.00;99.90;;;;;;4966297;28;20300;-79
2022/12/06 05:56:49;;;;;;;9.40;7.53;;;1.50;99.90;;;;;;4965235;28;20193;-82
2022/12/06 05:59:14;;;;;;;8.87;7.77;;;1.50;99.90;;;;;;4966778;28;20185;-81
2022/12/06 06:01:40;;;;;;;9.93;7.73;;;1.40;99.90;;;;;;4965526;28;20192;-80
2022/12/06 06:04:06;;;;;;;10.23;7.93;;;1.50;1.00;;;;;;4965081;28;20275;-83
2022/12/06 06:06:31;;;;;;;10.07;7.77;;;1.50;1.00;;;;;;4964962;28;20200;-81
2022/12/06 06:08:57;;;;;;;9.50;8.17;;;1.50;1.00;;;;;;4965160;28;20185;-81
2022/12/06 06:11:22;;;;;;;9.23;8.07;;;1.50;1.00;;;;;;4966271;28;20223;-80
2022/12/06 06:13:48;;;;;;;9.67;7.53;;;1.60;1.00;;;;;;4964510;28;20217;-82
2022/12/06 06:16:13;;;;;;;9.63;7.60;;;1.60;1.00;;;;;;4966208;28;20184;-79
2022/12/06 06:18:39;;;;;;;8.40;7.47;;;1.60;1.00;;;;;;4966390;28;20193;-80
2022/12/06 06:21:05;;;;;;;8.57;7.17;;;1.60;1.00;;;;;;4965204;28;20192;-80
2022/12/06 06:23:30;;;;;;;8.97;7.70;;;1.50;1.00;;;;;;4964950;28;20299;-81
2022/12/06 06:25:56;;;;;;;9.97;8.17;;;1.50;1.00;;;;;;4963835;28;20193;-81
2022/12/06 06:28:22;;;;;;;9.10;7.90;;;1.50;1.00;;;;;;4964977;28;20193;-81
2022/12/06 06:30:48;;;;;;;8.30;7.30;;;1.60;1.00;;;;;;4965015;28;20227;-80
2022/12/06 06:33:14;;;;;;;8.33;7.43;;;1.80;72.40;;;;;;4965720;28;20213;-81
2022/12/06 06:35:40;;;;;;;8.80;7.30;;;1.50;1.00;;;;;;4964394;28;20698;-80
2022/12/06 06:38:06;;;;;;;10.47;8.80;;;1.60;99.90;;;;;;4965423;28;20189;-81
2022/12/06 06:40:32;;;;;;;10.03;8.30;;;1.60;99.90;;;;;;4964767;28;20587;-80
2022/12/06 06:43:16;;;;;;;9.63;7.60;;;1.40;1.00;;;;;;4965104;28;20193;-80
2022/12/06 06:46:02;;;;;;;10.40;8.23;;;1.50;1.00;;;;;;4964280;28;20189;-80
2022/12/06 06:48:31;;;;;;;8.70;7.37;;;1.60;1.00;;;;;;4965132;28;20211;-80
2022/12/06 06:51:11;;;;;;;8.73;7.53;;;1.60;1.00;;;;;;4964454;28;20228;-83
2022/12/06 06:53:38;;;;;;;8.87;7.53;;;2.40;1.00;;;;;;4967249;28;20216;-81
2022/12/06 06:56:06;;;;;;;10.40;7.73;;;2.40;1.00;;;;;;4965743;28;20189;-79
2022/12/06 06:58:31;;;;;;;11.20;8.40;;;1.70;1.00;;;;;;4981882;22;20291;-81
2022/12/06 07:00:59;;;;;;;26.83;15.17;;;1.60;1.00;;;;;;4967157;28;21158;-80
2022/12/06 07:03:26;;;;;;;20.73;14.10;;;2.10;1.00;;;;;;4967768;28;20272;-80
2022/12/06 07:06:06;;;;;;;13.90;10.00;;;1.60;1.00;;;;;;4968274;28;20185;-79
2022/12/06 07:08:33;;;;;;;22.53;13.43;;;1.70;1.00;;;;;;4967375;28;20184;-80
2022/12/06 07:10:59;;;;;;;16.33;10.67;;;1.70;1.00;;;;;;4986213;28;20272;-79
2022/12/06 07:13:26;;;;;;;11.60;8.63;;;1.70;1.00;;;;;;4967686;28;20316;-83
2022/12/06 07:15:53;;;;;;;10.70;9.27;;;1.60;1.00;;;;;;4968840;28;20197;-81
2022/12/06 07:18:19;;;;;;;11.07;8.27;;;1.70;1.00;;;;;;4966966;28;20188;-82
2022/12/06 07:20:45;;;;;;;10.07;6.90;;;1.80;1.00;;;;;;4967466;28;20950;-83
2022/12/06 07:23:13;;;;;;;9.73;8.10;;;1.80;1.00;;;;;;4967806;28;20276;-80
2022/12/06 07:25:39;;;;;;;9.03;7.37;;;3.20;1.00;;;;;;4966274;28;20193;-81
2022/12/06 07:28:06;;;;;;;8.43;7.27;;;1.80;1.00;;;;;;4965515;28;20283;-82
2022/12/06 07:30:32;;;;;;;8.60;7.70;;;1.80;1.00;;;;;;4966294;28;20185;-82
2022/12/06 07:32:58;;;;;;;8.43;6.97;;;1.80;1.00;;;;;;4965258;28;20303;-82
2022/12/06 07:35:24;;;;;;;8.23;6.57;;;1.70;1.00;;;;;;4966068;28;20331;-83
2022/12/06 07:37:50;;;;;;;10.80;6.97;;;1.70;1.00;;;;;;4965024;28;20196;-82
2022/12/06 07:40:17;;;;;;;8.37;6.83;;;1.80;1.00;;;;;;4964610;28;20185;-85
2022/12/06 07:45:28;;;;;;;8.13;7.00;;;1.90;1.00;;;;;;4967268;28;20701;-78
2022/12/06 07:47:53;;;;;;;8.50;7.00;;;2.70;1.00;;;;;;4965579;28;20300;-78
2022/12/06 07:50:21;;;;;;;9.07;6.77;;;1.70;1.00;;;;;;4964606;28;20247;-80
2022/12/06 07:52:48;;;;;;;9.43;6.97;;;1.70;1.00;;;;;;4966164;28;20704;-81
2022/12/06 07:55:15;;;;;;;10.30;8.57;;;1.70;1.00;;;;;;4967783;28;20196;-79
2022/12/06 07:57:41;;;;;;;7.83;6.70;;;1.70;1.00;;;;;;4969084;28;20197;-81
2022/12/06 08:00:09;;;;;;;7.93;6.73;;;1.70;1.00;;;;;;4969646;28;20271;-79
2022/12/06 08:02:34;;;;;;;7.63;6.80;;;1.80;1.00;;;;;;4968718;28;20185;-81
2022/12/06 08:05:00;;;;;;;8.07;6.07;;;1.80;1.00;;;;;;4967885;28;20216;-81
2022/12/06 08:07:26;;;;;;;7.97;6.90;;;1.80;1.00;;;;;;4970688;28;20189;-80
2022/12/06 08:09:52;;;;;;;8.57;6.47;;;1.80;1.00;;;;;;4969341;28;20263;-79
2022/12/06 08:12:19;;;;;;;7.80;6.20;;;1.90;1.00;;;;;;4968192;28;20205;-80
2022/12/06 08:14:45;;;;;;;7.43;6.63;;;1.90;1.00;;;;;;4967912;28;20230;-80
2022/12/06 08:17:11;;;;;;;6.83;6.13;;;1.80;1.00;;;;;;4969907;28;20320;-80
2022/12/06 08:19:36;;;;;;;7.60;6.80;;;1.80;1.00;;;;;;4967819;28;20188;-80
2022/12/06 08:22:02;;;;;;;7.87;6.53;;;1.80;1.00;;;;;;4969935;28;21047;-79
2022/12/06 08:24:27;;;;;;;8.70;6.97;;;1.80;1.00;;;;;;4967524;28;20228;-79
2022/12/06 08:26:54;;;;;;;9.20;7.27;;;1.80;1.00;;;;;;4964191;28;21542;-79
2022/12/06 08:29:20;;;;;;;13.43;10.27;;;1.80;1.00;;;;;;4965066;28;21156;-78
2022/12/06 08:31:46;;;;;;;14.20;10.23;;;1.80;57.00;;;;;;4966024;28;20193;-79
2022/12/06 08:34:12;;;;;;;17.67;11.97;;;1.90;99.90;;;;;;4963195;28;20689;-79
2022/12/06 08:36:39;;;;;;;19.77;15.20;;;2.20;97.50;;;;;;4962011;28;20189;-80
2022/12/06 08:39:05;;;;;;;18.67;14.23;;;1.90;19.00;;;;;;4977666;28;20243;-80
2022/12/06 08:44:16;;;;;;;12.53;9.80;;;1.70;99.90;;;;;;4960632;28;20889;-79
2022/12/06 08:46:42;;;;;;;9.40;7.80;;;2.00;99.90;;;;;;4959820;28;20228;-79
2022/12/06 08:49:08;;;;;;;12.63;8.73;;;2.00;15.30;;;;;;4958738;28;20217;-85
2022/12/06 08:51:35;;;;;;;11.47;8.50;;;2.00;1.00;;;;;;4963196;28;20185;-78
2022/12/06 08:54:01;;;;;;;11.07;8.30;;;1.90;1.00;;;;;;4961093;28;20307;-82
2022/12/06 08:56:27;;;;;;;9.50;8.10;;;1.90;1.00;;;;;;4964479;28;20203;-77
2022/12/06 08:58:54;;;;;;;11.23;7.77;;;1.90;1.00;;;;;;4964508;28;20205;-80
2022/12/06 09:01:25;;;;;;;8.07;6.90;;;1.90;60.30;;;;;;4963630;28;20255;-80
2022/12/06 09:03:51;;;;;;;8.27;6.30;;;1.90;64.50;;;;;;4962772;28;20248;-80
2022/12/06 09:06:17;;;;;;;9.53;6.53;;;2.00;75.60;;;;;;4963428;28;20606;-81
2022/12/06 09:08:44;;;;;;;7.87;6.07;;;1.90;1.00;;;;;;4962740;28;20275;-81
2022/12/06 09:11:11;;;;;;;7.83;6.37;;;2.40;1.00;;;;;;4967573;28;20298;-81
2022/12/06 09:13:37;;;;;;;6.80;5.37;;;1.90;1.00;;;;;;4971183;28;20236;-80
2022/12/06 09:16:19;;;;;;;7.30;5.50;;;1.90;1.00;;;;;;4968770;28;20228;-79
2022/12/06 09:18:45;;;;;;;7.37;5.83;;;1.90;1.00;;;;;;4969070;28;20683;-79
2022/12/06 09:21:14;;;;;;;7.17;5.37;;;2.10;1.00;;;;;;4969203;28;20177;-79
2022/12/06 09:23:40;;;;;;;5.97;5.23;;;2.00;1.00;;;;;;4968750;28;20275;-79
2022/12/06 09:26:06;;;;;;;6.17;5.33;;;2.00;1.00;;;;;;4971885;28;20601;-79
2022/12/06 09:28:35;;;;;;;6.00;4.83;;;2.10;99.90;;;;;;4968872;28;20192;-80
2022/12/06 09:31:05;;;;;;;5.50;4.77;;;2.10;99.90;;;;;;4968502;28;20219;-80
2022/12/06 09:33:31;;;;;;;7.13;5.60;;;2.40;31.00;;;;;;4966038;28;20339;-79
2022/12/06 09:35:59;;;;;;;7.43;4.90;;;2.30;1.00;;;;;;4965395;28;21002;-77
2022/12/06 09:38:28;;;;;;;5.93;5.03;;;2.30;1.00;;;;;;4965919;28;20561;-78
2022/12/06 09:41:09;;;;;;;5.90;5.10;;;2.30;1.00;;;;;;4965617;28;20220;-78
2022/12/06 09:44:10;;;;;;;7.17;5.33;;;2.40;1.00;;;;;;4964803;28;20299;-79
2022/12/06 09:46:54;;;;;;;8.03;5.40;;;2.40;1.00;;;;;;4968419;28;20191;-79
2022/12/06 09:49:30;;;;;;;8.50;5.63;;;2.40;1.00;;;;;;4967264;28;21004;-79
2022/12/06 09:52:43;;;;;;;8.80;5.90;;;2.40;1.00;;;;;;4968876;28;20196;-79
2022/12/06 09:55:17;;;;;;;6.07;4.70;;;2.30;1.00;;;;;;4946107;28;20201;-79
2022/12/06 09:58:13;;;;;;;6.93;4.57;;;2.60;1.00;;;;;;4962901;28;20205;-79
2022/12/06 10:00:46;;;;;;;4.87;4.20;;;2.50;1.00;;;;;;4966776;28;20782;-79
2022/12/06 10:03:17;;;;;;;5.33;4.30;;;2.50;1.00;;;;;;4967754;28;20181;-79
2022/12/06 10:06:01;;;;;;;6.23;3.97;;;2.50;1.00;;;;;;4968710;28;20188;-79
2022/12/06 10:08:30;;;;;;;6.60;5.03;;;2.40;1.00;;;;;;4968753;28;20173;-78
2022/12/06 10:10:57;;;;;;;6.47;4.40;;;2.50;1.00;;;;;;4967467;28;20197;-78
2022/12/06 10:13:42;;;;;;;8.03;5.23;;;2.50;1.00;;;;;;4981407;28;20216;-78
2022/12/06 10:16:21;;;;;;;6.57;5.00;;;2.50;1.00;;;;;;4965795;28;20185;-80
2022/12/06 10:18:59;;;;;;;5.23;4.53;;;2.50;1.00;;;;;;4967447;28;20757;-79
2022/12/06 10:21:48;;;;;;;9.00;4.80;;;2.60;1.00;;;;;;4964346;28;20184;-79
2022/12/06 10:24:39;;;;;;;7.03;5.10;;;2.60;1.00;;;;;;4966945;28;20291;-78
2022/12/06 10:27:14;;;;;;;6.57;4.90;;;2.60;1.00;;;;;;4967711;28;20193;-79
2022/12/06 10:29:54;;;;;;;6.20;5.00;;;2.60;1.00;;;;;;4969198;28;20172;-79
2022/12/06 10:33:04;;;;;;;8.20;5.60;;;2.70;1.00;;;;;;4968085;28;20363;-79
2022/12/06 10:35:43;;;;;;;7.27;5.27;;;2.70;1.00;;;;;;4978085;28;20216;-79
2022/12/06 10:38:39;;;;;;;7.23;4.70;;;2.80;7.90;;;;;;4961352;28;20200;-79
2022/12/06 10:41:28;;;;;;;8.20;5.77;;;2.80;1.00;;;;;;4963712;28;20718;-79
2022/12/06 10:44:35;;;;;;;14.47;8.83;;;2.80;1.00;;;;;;4966895;28;20236;-80
2022/12/06 10:47:11;;;;;;;27.03;13.17;;;2.90;2.60;;;;;;4969910;28;20220;-79
2022/12/06 10:50:01;;;;;;;9.93;6.93;;;2.90;1.00;;;;;;4980986;28;20196;-80
2022/12/06 10:52:37;;;;;;;8.50;6.83;;;3.00;1.00;;;;;;4966408;28;20221;-79
2022/12/06 10:55:11;;;;;;;9.03;6.67;;;3.00;1.00;;;;;;4965063;28;21069;-81
2022/12/06 10:57:49;;;;;;;7.47;6.20;;;3.20;38.40;;;;;;4964813;28;20327;-79
2022/12/06 11:00:38;;;;;;;8.00;6.20;;;3.00;1.00;;;;;;4967182;28;20651;-80
2022/12/06 11:03:20;;;;;;;7.27;5.40;;;3.20;1.00;;;;;;4965799;28;20295;-79
2022/12/06 11:05:58;;;;;;;7.60;6.07;;;5.20;1.00;;;;;;4964092;28;20201;-81
2022/12/06 11:08:32;;;;;;;9.57;6.50;;;3.20;1.00;;;;;;4967780;28;20290;-79
2022/12/06 11:11:00;;;;;;;7.53;6.27;;;3.70;1.00;;;;;;4982966;28;20292;-77
2022/12/06 11:13:48;;;;;;;8.73;7.03;;;3.30;1.00;;;;;;4966308;28;20279;-79
2022/12/06 11:16:31;;;;;;;10.43;7.77;;;3.30;1.00;;;;;;4964879;28;20192;-80
2022/12/06 11:19:06;;;;;;;10.53;7.50;;;2.90;1.00;;;;;;4966909;28;20679;-83
2022/12/06 11:21:55;;;;;;;9.03;6.93;;;3.30;1.00;;;;;;4966527;28;20192;-78
2022/12/06 11:24:39;;;;;;;9.03;6.20;;;3.30;1.00;;;;;;4965318;28;20211;-78
2022/12/06 11:27:34;;;;;;;8.97;6.93;;;3.20;1.00;;;;;;4967216;28;20191;-83
2022/12/06 11:30:15;;;;;;;12.90;7.50;;;3.10;99.90;;;;;;4967557;28;20221;-79
2022/12/06 11:32:41;;;;;;;10.60;7.67;;;3.20;99.90;;;;;;4965658;28;20300;-80
2022/12/06 11:35:13;;;;;;;18.67;9.80;;;3.50;99.90;;;;;;4966435;28;20201;-78
2022/12/06 11:37:38;;;;;;;13.70;8.37;;;3.20;99.90;;;;;;4965703;28;20196;-76
2022/12/06 11:40:14;;;;;;;13.93;10.40;;;3.30;1.00;;;;;;4966959;28;20197;-78
2022/12/06 11:42:40;;;;;;;13.03;9.23;;;3.20;1.00;;;;;;4964691;28;20204;-77
2022/12/06 11:45:14;;;;;;;16.03;10.83;;;3.20;1.00;;;;;;4966505;28;20966;-78
2022/12/06 11:47:40;;;;;;;15.30;10.50;;;3.20;1.00;;;;;;4966379;28;20647;-79
2022/12/06 11:50:15;;;;;;;17.90;10.90;;;3.20;1.00;;;;;;4967054;28;20247;-79
2022/12/06 11:52:56;;;;;;;17.57;10.93;;;3.30;1.00;;;;;;4964538;28;20727;-79
2022/12/06 11:55:26;;;;;;;15.97;10.90;;;3.30;1.00;;;;;;4964738;28;20311;-79
2022/12/06 11:58:10;;;;;;;18.67;13.50;;;3.00;1.00;;;;;;4965759;28;20348;-79
2022/12/06 12:00:37;;;;;;;16.17;10.10;;;3.30;20.20;;;;;;4965948;28;20192;-80
2022/12/06 12:03:03;;;;;;;15.70;10.60;;;3.30;99.90;;;;;;4965233;28;20185;-79
2022/12/06 12:05:35;;;;;;;17.47;11.47;;;3.30;7.40;;;;;;4965302;28;20806;-80
2022/12/06 12:08:05;;;;;;;19.20;11.70;;;3.30;96.20;;;;;;4965568;28;20441;-83
2022/12/06 12:10:41;;;;;;;18.23;12.27;;;3.30;99.90;;;;;;4963195;28;20192;-80
2022/12/06 12:16:25;;;;;;;22.10;12.43;;;3.60;78.90;;;;;;4961078;28;20383;-79
2022/12/06 12:18:53;;;;;;;20.03;12.80;;;3.30;99.90;;;;;;5001068;22;20244;-79
2022/12/06 12:21:38;;;;;;;20.90;14.17;;;3.30;99.90;;;;;;4972088;28;20220;-80
2022/12/06 12:24:25;;;;;;;26.60;16.43;;;3.30;99.90;;;;;;4966674;28;20240;-81
2022/12/06 12:26:50;;;;;;;24.03;14.97;;;3.30;99.90;;;;;;4955839;28;20257;-80
2022/12/06 12:29:19;;;;;;;26.83;17.77;;;3.30;1.00;;;;;;4955753;28;20217;-78
2022/12/06 12:32:09;;;;;;;27.63;15.93;;;3.30;1.00;;;;;;4953451;28;20201;-80
2022/12/06 12:34:34;;;;;;;23.70;14.63;;;3.30;1.00;;;;;;4953292;28;20467;-80
2022/12/06 12:37:03;;;;;;;20.57;12.60;;;3.30;1.00;;;;;;4954680;28;20190;-80
2022/12/06 12:39:52;;;;;;;24.30;14.17;;;3.30;1.00;;;;;;4953610;28;20190;-80
2022/12/06 12:42:28;;;;;;;22.60;13.77;;;3.10;99.90;;;;;;4955681;28;20193;-78
2022/12/06 12:45:04;;;;;;;21.77;12.73;;;3.30;1.00;;;;;;4957919;28;20399;-79
2022/12/06 12:47:31;;;;;;;32.13;17.83;;;3.30;99.90;;;;;;4958012;29;20250;-80
2022/12/06 12:50:17;;;;;;;22.43;13.20;;;3.00;1.00;;;;;;4959423;28;20189;-80
2022/12/06 12:52:43;;;;;;;20.87;12.57;;;3.30;1.00;;;;;;4956079;28;20209;-79
2022/12/06 12:55:11;;;;;;;21.97;13.07;;;3.10;1.00;;;;;;4957692;28;20205;-81
2022/12/06 12:57:37;;;;;;;20.90;12.53;;;3.40;1.00;;;;;;4958132;28;20190;-80
2022/12/06 13:00:04;;;;;;;22.37;12.83;;;3.10;1.00;;;;;;4953987;28;20536;-79
2022/12/06 13:02:34;;;;;;;21.67;12.90;;;3.40;1.00;;;;;;4953742;28;20245;-80
2022/12/06 13:05:04;;;;;;;21.10;12.37;;;3.40;1.00;;;;;;4955777;28;20200;-80
2022/12/06 13:07:35;;;;;;;21.07;12.43;;;3.30;1.00;;;;;;4956310;28;20202;-81
2022/12/06 13:10:10;;;;;;;21.77;12.93;;;4.30;90.00;;;;;;4956894;28;20198;-78
2022/12/06 13:12:54;;;;;;;16.17;11.17;;;3.40;63.20;;;;;;4957396;28;20232;-79
2022/12/06 13:15:33;;;;;;;19.20;11.37;;;3.40;99.90;;;;;;4958364;28;20213;-80
2022/12/06 13:18:09;;;;;;;20.13;11.70;;;3.40;99.90;;;;;;4959594;28;20201;-80
2022/12/06 13:20:36;;;;;;;17.80;11.03;;;5.10;99.90;;;;;;4958704;28;20185;-80
2022/12/06 13:23:15;;;;;;;19.50;10.73;;;3.10;1.00;;;;;;4959216;28;20225;-79
2022/12/06 13:26:14;;;;;;;22.87;12.20;;;3.40;1.00;;;;;;4958313;28;21130;-82
2022/12/06 13:28:44;;;;;;;21.13;12.17;;;2.40;59.10;;;;;;4957426;28;20982;-79
2022/12/06 13:31:14;;;;;;;21.30;12.10;;;3.10;99.90;;;;;;4950678;28;20181;-80
2022/12/06 13:33:48;;;;;;;22.60;13.67;;;3.30;99.90;;;;;;4952041;28;20509;-82
2022/12/06 13:36:15;;;;;;;23.40;13.70;;;3.40;97.50;;;;;;4949501;28;20244;-80
2022/12/06 13:38:41;;;;;;;18.80;11.37;;;3.50;90.10;;;;;;4949123;28;20178;-80
2022/12/06 13:41:12;;;;;;;20.20;12.10;;;3.50;1.00;;;;;;4950144;28;20666;-81